Time;durP1;ratioP1;P1;durP2;ratioP2;P2;SDS_P1;SDS_P2;PMS_P1;PMS_P2;Temp;Humidity;BMP_temperature;BMP_pressure;BME280_temperature;BME280_humidity;BME280_pressure;Samples;Min_cycle;Max_cycle;Signal;HPM_P1;HPM_P2
2022/08/16 00:00:40;;;;;;;9.32;5.30;;;;;;;19.49;76.33;100451.09;5068049;28;20388;-80
2022/08/16 00:03:06;;;;;;;7.78;5.55;;;;;;;19.38;77.96;100447.97;5071109;28;20060;-80
2022/08/16 00:05:32;;;;;;;8.55;5.47;;;;;;;19.28;78.06;100456.50;5071218;28;20094;-80
2022/08/16 00:07:58;;;;;;;6.90;5.60;;;;;;;19.20;78.24;100452.69;5071076;28;20116;-80
2022/08/16 00:10:25;;;;;;;6.20;5.57;;;;;;;19.22;78.14;100461.31;5071558;28;20039;-80
2022/08/16 00:12:51;;;;;;;5.85;5.30;;;;;;;19.22;78.28;100461.31;5054562;28;20025;-80
2022/08/16 00:15:21;;;;;;;6.68;5.53;;;;;;;19.18;78.01;100465.78;5072892;28;20054;-80
2022/08/16 00:17:47;;;;;;;6.35;5.40;;;;;;;19.12;78.19;100458.94;5072961;28;20024;-80
2022/08/16 00:20:13;;;;;;;7.57;5.60;;;;;;;19.06;78.49;100463.75;5071308;28;20020;-80
2022/08/16 00:22:41;;;;;;;7.00;5.47;;;;;;;19.00;78.43;100465.84;5071280;28;20052;-80
2022/08/16 00:25:10;;;;;;;7.53;6.35;;;;;;;18.98;79.17;100461.88;5072525;28;20027;-80
2022/08/16 00:27:35;;;;;;;6.85;5.45;;;;;;;18.94;78.90;100466.31;5071528;28;20071;-80
2022/08/16 00:30:01;;;;;;;6.97;5.43;;;;;;;18.95;79.08;100467.94;5070758;28;20148;-80
2022/08/16 00:32:27;;;;;;;6.95;6.10;;;;;;;18.83;79.15;100463.16;5071960;28;20017;-80
2022/08/16 00:34:52;;;;;;;6.60;5.90;;;;;;;18.79;79.74;100473.03;5071878;28;20108;-80
2022/08/16 00:37:19;;;;;;;8.80;5.70;;;;;;;18.75;79.80;100472.91;5072624;28;20047;-80
2022/08/16 00:39:45;;;;;;;11.30;5.50;;;;;;;18.70;79.78;100479.28;5069580;28;20032;-80
2022/08/16 00:42:10;;;;;;;10.20;5.80;;;;;;;18.60;80.29;100472.28;5072501;28;20032;-81
2022/08/16 00:44:38;;;;;;;6.47;5.60;;;;;;;18.59;80.73;100478.81;5072478;28;20564;-80
2022/08/16 00:47:08;;;;;;;10.02;5.97;;;;;;;18.56;80.49;100474.03;5072362;28;20369;-80
2022/08/16 00:49:35;;;;;;;8.20;6.40;;;;;;;18.48;81.51;100465.91;5072276;28;20036;-80
2022/08/16 00:52:00;;;;;;;8.18;5.50;;;;;;;18.50;80.99;100469.09;5070438;28;20036;-80
2022/08/16 00:54:29;;;;;;;6.47;5.80;;;;;;;18.46;81.88;100480.59;5071347;28;20031;-80
2022/08/16 00:57:01;;;;;;;7.47;5.72;;;;;;;18.45;82.12;100478.16;5069686;28;20558;-80
2022/08/16 00:59:30;;;;;;;7.97;6.05;;;;;;;18.41;81.93;100479.94;5072374;28;20023;-80
2022/08/16 01:01:56;;;;;;;8.43;6.78;;;;;;;18.37;82.29;100477.06;5070400;28;20139;-80
2022/08/16 01:04:25;;;;;;;8.43;6.13;;;;;;;18.37;82.39;100481.69;5071159;28;20402;-80
2022/08/16 01:06:50;;;;;;;7.25;6.13;;;;;;;18.29;82.71;100475.94;5071889;28;20021;-80
2022/08/16 01:09:17;;;;;;;7.22;6.40;;;;;;;18.27;83.29;100480.09;5071735;28;20024;-80
2022/08/16 01:11:44;;;;;;;8.60;6.40;;;;;;;18.24;83.32;100484.25;5069719;28;20021;-80
2022/08/16 01:14:28;;;;;;;10.27;6.85;;;;;;;18.19;83.88;100478.97;5071035;28;20387;-80
2022/08/16 01:16:54;;;;;;;7.47;6.60;;;;;;;18.16;84.09;100480.44;5071699;28;20039;-80
2022/08/16 01:19:22;;;;;;;7.70;6.53;;;;;;;18.13;83.57;100480.25;5072051;28;20275;-80
2022/08/16 01:22:14;;;;;;;9.30;6.35;;;;;;;18.11;83.01;100480.56;5069984;28;20076;-80
2022/08/16 01:24:45;;;;;;;9.60;7.00;;;;;;;18.05;84.48;100473.69;5071362;28;20032;-81
2022/08/16 01:27:19;;;;;;;8.40;6.53;;;;;;;18.07;83.61;100476.88;5060675;28;20475;-80
2022/08/16 01:29:56;;;;;;;9.48;6.82;;;;;;;18.03;84.17;100475.13;5068502;28;20097;-80
2022/08/16 01:32:21;;;;;;;9.90;6.88;;;;;;;18.03;84.20;100480.56;5070416;28;20090;-80
2022/08/16 01:34:47;;;;;;;8.47;6.70;;;;;;;18.01;84.14;100476.25;5070946;28;20032;-80
2022/08/16 01:37:13;;;;;;;10.03;7.50;;;;;;;17.97;84.31;100474.47;5071451;28;20270;-80
2022/08/16 01:39:39;;;;;;;10.45;7.43;;;;;;;17.95;85.17;100476.69;5071092;28;20365;-80
2022/08/16 01:42:08;;;;;;;8.97;7.33;;;;;;;17.93;85.21;100471.56;5070627;28;20517;-80
2022/08/16 01:44:34;;;;;;;11.60;7.50;;;;;;;17.91;84.24;100470.31;5071163;28;20361;-80
2022/08/16 01:47:00;;;;;;;10.18;7.57;;;;;;;17.92;84.23;100471.91;5068577;28;20492;-80
2022/08/16 01:49:31;;;;;;;12.47;8.70;;;;;;;17.86;85.70;100477.47;5070442;28;20039;-80
2022/08/16 01:52:03;;;;;;;9.87;8.03;;;;;;;17.86;84.84;100474.75;5066242;28;20295;-80
2022/08/16 01:54:29;;;;;;;11.20;8.38;;;;;;;17.89;85.40;100475.25;5071283;28;20029;-80
2022/08/16 01:56:56;;;;;;;13.43;8.57;;;;;;;17.88;85.71;100484.47;5071481;28;20038;-80
2022/08/16 01:59:22;;;;;;;11.27;8.15;;;;;;;17.86;85.41;100482.09;5069970;28;20450;-80
2022/08/16 02:01:49;;;;;;;11.80;8.30;;;;;;;17.82;85.35;100473.78;5068332;28;20035;-80
2022/08/16 02:04:15;;;;;;;11.75;7.95;;;;;;;17.76;85.65;100474.25;5070569;28;20025;-81
2022/08/16 02:06:41;;;;;;;11.95;8.07;;;;;;;17.75;86.36;100481.59;5071049;28;20513;-80
2022/08/16 02:09:08;;;;;;;12.38;8.48;;;;;;;17.75;86.09;100480.78;5069830;28;20078;-80
2022/08/16 02:11:36;;;;;;;11.50;8.60;;;;;;;17.74;85.87;100482.69;5069911;28;20573;-80
2022/08/16 02:14:01;;;;;;;16.63;8.90;;;;;;;17.70;85.84;100481.72;5070504;28;20103;-80
2022/08/16 02:16:26;;;;;;;12.75;9.20;;;;;;;17.68;86.75;100479.34;5052756;28;20127;-80
2022/08/16 02:18:52;;;;;;;12.07;8.73;;;;;;;17.71;86.24;100477.91;5066338;28;20112;-80
2022/08/16 02:21:21;;;;;;;11.97;9.50;;;;;;;17.68;87.22;100481.25;5069936;28;20028;-80
2022/08/16 02:23:46;;;;;;;12.80;9.52;;;;;;;17.64;87.43;100467.53;5069845;28;20060;-80
2022/08/16 02:26:14;;;;;;;22.10;9.95;;;;;;;17.66;87.07;100481.56;5070080;28;20052;-80
2022/08/16 02:28:40;;;;;;;11.40;9.17;;;;;;;17.63;87.20;100482.19;5068993;28;20033;-80
2022/08/16 02:31:10;;;;;;;12.40;9.57;;;;;;;17.56;87.65;100469.09;5068085;28;20078;-80
2022/08/16 02:33:36;;;;;;;16.27;9.82;;;;;;;17.59;87.45;100477.72;5070087;28;20032;-80
2022/08/16 02:36:02;;;;;;;14.18;9.73;;;;;;;17.54;87.70;100473.22;5068645;28;20032;-80
2022/08/16 02:38:29;;;;;;;13.93;10.15;;;;;;;17.51;87.82;100468.44;5069833;28;20025;-80
2022/08/16 02:40:56;;;;;;;15.15;9.77;;;;;;;17.52;87.62;100476.25;5069624;28;20027;-80
2022/08/16 02:43:27;;;;;;;17.42;10.38;;;;;;;17.48;88.31;100471.78;5070195;28;20512;-80
2022/08/16 02:45:54;;;;;;;14.65;10.13;;;;;;;17.42;88.47;100465.72;5069091;28;20039;-80
2022/08/16 02:48:20;;;;;;;17.10;11.07;;;;;;;17.39;89.33;100467.13;5056729;28;20732;-80
2022/08/16 02:50:45;;;;;;;13.33;10.27;;;;;;;17.38;89.13;100465.53;5049335;28;20382;-80
2022/08/16 02:53:11;;;;;;;14.40;10.33;;;;;;;17.32;89.09;100463.28;5062412;28;20081;-80
2022/08/16 02:55:36;;;;;;;16.23;10.40;;;;;;;17.25;89.18;100456.38;5069584;28;20032;-80
2022/08/16 02:58:02;;;;;;;15.88;10.55;;;;;;;17.24;89.48;100468.34;5068592;28;20372;-80
2022/08/16 03:00:27;;;;;;;15.73;10.70;;;;;;;17.21;89.03;100462.75;5069434;28;20025;-80
2022/08/16 03:02:54;;;;;;;14.60;10.33;;;;;;;17.17;90.09;100459.06;5069850;28;20025;-80
2022/08/16 03:05:19;;;;;;;14.05;10.40;;;;;;;17.14;89.68;100457.00;5070255;28;20453;-80
2022/08/16 03:07:44;;;;;;;14.05;10.18;;;;;;;17.09;89.15;100458.72;5068706;28;20048;-79
2022/08/16 03:10:12;;;;;;;15.33;10.90;;;;;;;17.04;89.78;100464.25;5067564;28;20039;-80
2022/08/16 03:12:38;;;;;;;14.33;10.60;;;;;;;16.94;90.23;100454.47;5069781;28;20054;-80
2022/08/16 03:15:06;;;;;;;11.57;10.00;;;;;;;16.99;89.99;100471.72;5058716;28;20290;-80
2022/08/16 03:17:31;;;;;;;14.15;10.70;;;;;;;16.92;90.83;100464.78;5068918;28;20419;-80
2022/08/16 03:19:57;;;;;;;14.95;10.77;;;;;;;16.87;89.98;100464.94;5068935;28;20036;-81
2022/08/16 03:22:22;;;;;;;14.70;10.37;;;;;;;16.92;90.38;100470.19;5069105;28;20034;-80
2022/08/16 03:24:48;;;;;;;13.38;10.15;;;;;;;16.90;90.96;100460.81;5069127;28;20032;-81
2022/08/16 03:27:13;;;;;;;16.40;11.17;;;;;;;16.86;90.66;100455.22;5068185;28;20032;-81
2022/08/16 03:29:39;;;;;;;13.93;10.63;;;;;;;16.81;91.25;100450.72;5067762;28;20043;-80
2022/08/16 03:32:04;;;;;;;14.88;11.10;;;;;;;16.81;90.95;100458.84;5068470;28;20104;-80
2022/08/16 03:34:32;;;;;;;12.57;10.73;;;;;;;16.83;91.52;100460.44;5051586;28;20051;-80
2022/08/16 03:36:59;;;;;;;14.63;10.57;;;;;;;16.81;91.87;100458.03;5069159;28;20032;-80
2022/08/16 03:39:25;;;;;;;15.38;10.60;;;;;;;16.78;91.68;100470.28;5070059;28;20032;-80
2022/08/16 03:41:52;;;;;;;16.52;10.93;;;;;;;16.73;92.04;100466.91;5071219;28;20034;-81
2022/08/16 03:44:19;;;;;;;15.48;10.65;;;;;;;16.71;92.05;100469.91;5072308;28;20086;-81
2022/08/16 03:46:44;;;;;;;18.02;11.27;;;;;;;16.71;92.12;100478.03;5064343;28;20031;-81
2022/08/16 03:49:10;;;;;;;17.87;10.93;;;;;;;16.68;92.28;100475.94;5070062;28;20028;-81
2022/08/16 03:51:37;;;;;;;19.05;10.85;;;;;;;16.67;92.85;100484.38;5072886;28;20024;-81
2022/08/16 03:54:03;;;;;;;16.95;10.40;;;;;;;16.66;92.50;100488.97;5072008;28;20021;-81
2022/08/16 03:56:29;;;;;;;14.00;10.68;;;;;;;16.65;92.62;100484.66;5071894;28;20028;-81
2022/08/16 03:58:55;;;;;;;13.50;10.37;;;;;;;16.61;92.52;100487.19;5072119;28;20031;-81
2022/08/16 04:01:22;;;;;;;16.13;11.07;;;;;;;16.57;93.55;100486.19;5072251;28;20312;-81
2022/08/16 04:03:49;;;;;;;14.43;10.63;;;;;;;16.57;92.62;100499.72;5073161;28;20028;-81
2022/08/16 04:06:14;;;;;;;14.02;11.02;;;;;;;16.54;92.70;100497.63;5073408;28;20024;-81
2022/08/16 04:08:40;;;;;;;13.90;11.10;;;;;;;16.55;93.06;100510.03;5070882;28;20089;-81
2022/08/16 04:11:05;;;;;;;18.83;12.27;;;;;;;16.48;93.54;100499.66;5071241;28;20402;-81
2022/08/16 04:13:30;;;;;;;14.32;11.73;;;;;;;16.54;93.75;100510.38;5072413;28;20028;-81
2022/08/16 04:15:58;;;;;;;16.60;11.57;;;;;;;16.52;93.31;100515.28;5073019;28;20033;-81
2022/08/16 04:18:24;;;;;;;18.25;12.10;;;;;;;16.49;94.12;100517.47;5069448;28;20024;-83
2022/08/16 04:20:50;;;;;;;15.82;12.20;;;;;;;16.54;94.49;100507.66;5068345;28;20040;-84
2022/08/16 04:23:15;;;;;;;15.90;12.27;;;;;;;16.50;94.52;100508.25;5062873;28;20021;-84
2022/08/16 04:25:41;;;;;;;19.27;13.40;;;;;;;16.47;94.61;100508.88;5052309;28;20032;-84
2022/08/16 04:28:06;;;;;;;18.33;12.77;;;;;;;16.53;94.07;100522.28;5056173;28;20028;-84
2022/08/16 04:30:32;;;;;;;18.40;12.80;;;;;;;16.53;93.81;100519.59;5062347;28;20029;-84
2022/08/16 04:32:58;;;;;;;17.27;12.80;;;;;;;16.45;93.79;100516.47;5053731;28;20021;-84
2022/08/16 04:35:25;;;;;;;20.58;13.98;;;;;;;16.55;94.04;100518.16;5070264;28;20360;-83
2022/08/16 04:37:51;;;;;;;21.42;14.48;;;;;;;16.61;95.51;100516.16;5069158;28;21771;-82
2022/08/16 04:40:20;;;;;;;23.70;15.60;;;;;;;16.65;95.50;100499.00;5071279;28;20032;-82
2022/08/16 04:42:46;;;;;;;24.30;15.93;;;;;;;16.75;95.25;100502.56;5068564;28;20287;-82
2022/08/16 04:45:13;;;;;;;24.05;15.00;;;;;;;16.78;94.36;100505.47;5071125;28;20422;-82
2022/08/16 04:47:40;;;;;;;22.23;14.23;;;;;;;16.85;94.82;100515.03;5070204;28;20040;-82
2022/08/16 04:50:16;;;;;;;20.60;14.65;;;;;;;16.88;94.41;100507.13;5071668;28;21029;-82
2022/08/16 04:52:44;;;;;;;20.45;13.95;;;;;;;16.91;93.81;100514.59;5070389;28;20056;-82
2022/08/16 04:55:13;;;;;;;24.55;16.27;;;;;;;16.91;94.77;100516.53;5069217;28;20036;-81
2022/08/16 04:57:39;;;;;;;22.20;15.18;;;;;;;16.93;94.05;100519.72;5068849;28;20556;-84
2022/08/16 05:00:11;;;;;;;22.57;14.83;;;;;;;16.94;94.90;100518.63;5071554;28;20070;-84
2022/08/16 05:02:37;;;;;;;22.92;15.43;;;;;;;16.99;94.12;100515.00;5071007;28;20111;-84
2022/08/16 05:05:03;;;;;;;20.20;15.13;;;;;;;17.07;94.08;100515.06;5071732;28;20032;-84
2022/08/16 05:07:30;;;;;;;18.77;14.85;;;;;;;17.10;94.72;100517.16;5072172;28;20391;-84
2022/08/16 05:09:55;;;;;;;22.10;14.77;;;;;;;17.15;93.57;100520.84;5069352;28;20020;-84
2022/08/16 05:14:55;;;;;;;19.20;15.10;;;;;;;17.22;94.37;100521.19;5405632;22;20060;-83
2022/08/16 05:17:21;;;;;;;20.67;15.57;;;;;;;17.28;93.46;100522.66;5071047;28;20036;-84
2022/08/16 05:19:46;;;;;;;26.90;15.77;;;;;;;17.33;93.38;100527.97;5069461;28;20487;-83
2022/08/16 05:22:11;;;;;;;21.10;14.80;;;;;;;17.40;92.79;100533.72;5064827;28;20060;-83
2022/08/16 05:24:37;;;;;;;21.77;15.50;;;;;;;17.47;93.04;100533.25;5050770;28;20287;-83
2022/08/16 05:27:03;;;;;;;35.47;16.53;;;;;;;17.53;93.33;100531.22;5050301;28;20099;-83
2022/08/16 05:29:28;;;;;;;24.30;16.70;;;;;;;17.66;93.55;100541.16;5050867;28;20322;-83
2022/08/16 05:31:53;;;;;;;21.87;15.40;;;;;;;17.83;91.80;100534.22;5049801;28;20082;-83
2022/08/16 05:34:20;;;;;;;20.07;15.30;;;;;;;18.00;90.11;100541.59;5051387;28;20021;-83
2022/08/16 05:36:48;;;;;;;21.38;15.50;;;;;;;18.16;90.48;100550.91;5051167;28;20029;-82
2022/08/16 05:39:13;;;;;;;22.30;14.75;;;;;;;18.25;89.37;100545.50;5050712;28;20060;-83
2022/08/16 05:41:39;;;;;;;21.25;14.98;;;;;;;18.34;89.76;100547.41;5050592;28;20079;-83
2022/08/16 05:44:04;;;;;;;24.47;15.73;;;;;;;18.37;89.52;100557.66;5064743;28;20028;-83
2022/08/16 05:46:29;;;;;;;18.20;14.20;;;;;;;18.38;88.46;100548.41;5050134;28;20044;-83
2022/08/16 05:48:54;;;;;;;18.83;13.83;;;;;;;18.42;88.39;100554.78;5049970;28;20065;-83
2022/08/16 05:51:20;;;;;;;19.73;13.53;;;;;;;18.47;88.31;100557.31;5055856;28;20028;-83
2022/08/16 05:53:45;;;;;;;20.37;14.40;;;;;;;18.52;88.52;100559.88;5052082;28;20476;-83
2022/08/16 05:56:11;;;;;;;17.90;13.40;;;;;;;18.58;87.58;100565.94;5059892;28;20024;-83
2022/08/16 05:58:37;;;;;;;18.73;14.05;;;;;;;18.66;88.18;100572.50;5062665;28;20547;-83
2022/08/16 06:01:03;;;;;;;21.53;13.07;;;;;;;18.71;86.91;100572.34;5049327;28;20033;-83
2022/08/16 06:03:28;;;;;;;19.95;13.00;;;;;;;18.79;86.63;100563.41;5065079;28;20369;-83
2022/08/16 06:05:53;;;;;;;20.52;14.30;;;;;;;18.87;86.70;100562.59;5067226;28;20028;-83
2022/08/16 06:08:19;;;;;;;21.90;13.57;;;;;;;18.97;85.74;100572.38;5050294;28;20092;-83
2022/08/16 06:10:44;;;;;;;20.77;12.47;;;;;;;19.01;85.80;100569.78;5052027;28;20029;-81
2022/08/16 06:13:09;;;;;;;25.03;13.90;;;;;;;19.11;84.96;100571.38;5055284;28;20412;-82
2022/08/16 06:15:34;;;;;;;20.50;12.50;;;;;;;19.25;83.39;100584.78;5046281;28;20067;-81
2022/08/16 06:18:00;;;;;;;19.77;13.13;;;;;;;19.34;83.35;100580.16;5057199;28;20075;-81
2022/08/16 06:20:27;;;;;;;18.23;12.53;;;;;;;19.42;81.90;100590.19;5048020;28;20029;-80
2022/08/16 06:22:55;;;;;;;23.25;13.93;;;;;;;19.51;82.39;100588.25;5048439;28;20057;-81
2022/08/16 06:25:21;;;;;;;24.15;14.05;;;;;;;19.61;80.67;100586.28;5033253;28;20074;-81
2022/08/16 06:27:46;;;;;;;19.85;13.57;;;;;;;19.65;80.59;100596.19;5041492;28;20024;-81
2022/08/16 06:30:12;;;;;;;17.37;13.67;;;;;;;19.74;79.59;100595.34;5038392;28;20382;-82
2022/08/16 06:32:37;;;;;;;17.05;13.20;;;;;;;19.81;79.49;100588.28;5039382;28;20049;-82
2022/08/16 06:35:04;;;;;;;21.47;12.33;;;;;;;19.92;79.18;100598.81;5041311;28;20036;-82
2022/08/16 06:37:29;;;;;;;16.40;10.85;;;;;;;20.04;78.18;100601.66;5041366;28;20090;-82
2022/08/16 06:39:54;;;;;;;29.13;12.43;;;;;;;20.11;77.98;100599.19;5056519;28;20029;-82
2022/08/16 06:42:20;;;;;;;23.70;12.90;;;;;;;20.19;76.72;100592.13;5043289;28;20033;-82
2022/08/16 06:44:45;;;;;;;18.17;12.97;;;;;;;20.25;76.35;100595.47;5029626;28;20029;-82
2022/08/16 06:47:12;;;;;;;19.80;12.80;;;;;;;20.31;76.18;100585.97;5037690;28;20116;-82
2022/08/16 06:49:38;;;;;;;18.88;13.05;;;;;;;20.38;75.86;100590.88;5047103;28;20029;-82
2022/08/16 06:52:03;;;;;;;18.55;12.15;;;;;;;20.51;75.33;100600.75;5036647;28;20041;-82
2022/08/16 06:54:29;;;;;;;23.73;12.37;;;;;;;20.60;75.19;100597.97;5043172;28;20108;-82
2022/08/16 06:56:54;;;;;;;18.87;13.23;;;;;;;20.68;74.40;100594.34;5048739;28;20039;-82
2022/08/16 06:59:19;;;;;;;18.45;11.35;;;;;;;20.79;74.33;100594.78;5049947;28;20073;-81
2022/08/16 07:01:44;;;;;;;17.33;12.13;;;;;;;20.89;73.94;100609.91;5042799;28;20549;-81
2022/08/16 07:04:10;;;;;;;17.03;12.73;;;;;;;20.97;73.46;100610.97;5048166;28;20113;-82
2022/08/16 07:06:35;;;;;;;20.47;12.33;;;;;;;21.09;73.50;100602.06;5049815;28;20031;-83
2022/08/16 07:09:01;;;;;;;14.10;12.23;;;;;;;21.13;72.69;100603.00;5048744;28;20078;-84
2022/08/16 07:11:26;;;;;;;20.73;13.57;;;;;;;21.22;72.14;100611.88;5048775;28;20074;-84
2022/08/16 07:13:53;;;;;;;16.97;12.90;;;;;;;21.30;71.41;100612.91;5054425;28;20028;-84
2022/08/16 07:16:19;;;;;;;17.42;13.20;;;;;;;21.32;71.00;100616.91;5049613;28;20392;-85
2022/08/16 07:18:45;;;;;;;19.75;12.52;;;;;;;21.38;71.00;100622.13;5061826;28;20053;-85
2022/08/16 07:21:12;;;;;;;18.05;11.57;;;;;;;21.42;70.52;100617.59;5049360;28;20025;-84
2022/08/16 07:23:40;;;;;;;17.77;12.55;;;;;;;21.47;70.09;100622.84;5047130;28;20032;-84
2022/08/16 07:26:10;;;;;;;17.27;12.00;;;;;;;21.53;70.37;100624.22;5048275;28;20052;-84
2022/08/16 07:28:36;;;;;;;15.57;11.40;;;;;;;21.60;70.21;100621.75;5052000;28;20385;-86
2022/08/16 07:31:02;;;;;;;52.97;10.80;;;;;;;21.68;69.54;100622.00;5033623;28;20037;-84
2022/08/16 07:33:29;;;;;;;28.20;12.00;;;;;;;21.75;69.82;100631.22;5041966;28;20364;-83
2022/08/16 07:35:56;;;;;;;31.17;12.40;;;;;;;21.79;69.55;100628.59;5048354;28;20029;-85
2022/08/16 07:38:21;;;;;;;28.35;11.52;;;;;;;21.90;69.56;100637.94;5043873;28;20108;-84
2022/08/16 07:40:47;;;;;;;316.07;21.20;;;;;;;21.92;69.28;100632.91;5046621;28;20113;-85
2022/08/16 07:43:12;;;;;;;120.20;15.00;;;;;;;22.06;68.77;100631.81;5044239;28;20477;-85
2022/08/16 07:45:37;;;;;;;67.10;12.05;;;;;;;22.16;68.38;100645.00;5046441;28;20186;-83
2022/08/16 07:48:03;;;;;;;82.20;13.63;;;;;;;22.28;68.31;100649.66;5036526;28;20116;-86
2022/08/16 07:50:28;;;;;;;51.10;12.23;;;;;;;22.36;67.75;100647.94;5028342;28;20025;-83
2022/08/16 07:52:53;;;;;;;61.67;12.03;;;;;;;22.45;67.51;100640.47;5023624;28;20083;-83
2022/08/16 07:55:19;;;;;;;19.02;11.65;;;;;;;22.48;66.99;100644.44;5041565;28;20048;-85
2022/08/16 07:57:44;;;;;;;47.10;11.23;;;;;;;22.52;67.17;100654.31;5045282;28;20036;-83
2022/08/16 08:00:11;;;;;;;519.90;37.17;;;;;;;22.60;66.33;100644.41;5047493;28;20033;-84
2022/08/16 08:02:37;;;;;;;365.63;25.00;;;;;;;22.70;66.61;100640.41;5043316;28;20374;-86
2022/08/16 08:05:03;;;;;;;29.70;10.60;;;;;;;22.86;66.23;100643.22;5037127;28;20094;-85
2022/08/16 08:07:28;;;;;;;15.68;10.82;;;;;;;22.92;65.39;100639.06;5032830;28;20397;-84
2022/08/16 08:09:55;;;;;;;19.47;10.37;;;;;;;23.10;65.45;100645.06;5034377;28;20033;-85
2022/08/16 08:12:20;;;;;;;14.80;9.63;;;;;;;23.19;65.27;100644.13;5043613;28;20025;-86
2022/08/16 08:14:47;;;;;;;16.60;10.05;;;;;;;23.31;65.09;100663.22;5048350;28;20052;-86
2022/08/16 08:17:13;;;;;;;15.00;9.53;;;;;;;23.33;63.97;100660.13;5033500;28;20087;-85
2022/08/16 08:19:38;;;;;;;21.23;10.50;;;;;;;23.49;63.45;100671.09;5031236;28;20303;-85
2022/08/16 08:22:04;;;;;;;11.10;8.85;;;;;;;23.54;61.24;100662.66;5028884;28;20057;-85
2022/08/16 08:24:34;;;;;;;13.93;8.73;;;;;;;23.65;60.57;100654.72;5039585;28;20056;-84
2022/08/16 08:27:04;;;;;;;11.40;8.18;;;;;;;23.78;59.60;100666.38;5043620;28;20112;-86
2022/08/16 08:29:31;;;;;;;11.35;9.02;;;;;;;23.84;59.71;100659.50;5050561;28;20040;-85
2022/08/16 08:31:57;;;;;;;15.23;8.63;;;;;;;23.89;59.23;100654.53;5059650;28;20127;-85
2022/08/16 08:34:22;;;;;;;11.63;8.00;;;;;;;24.10;58.73;100659.00;5042412;28;20166;-85
2022/08/16 08:36:49;;;;;;;10.37;7.00;;;;;;;24.32;59.23;100664.97;5050337;28;20040;-84
2022/08/16 08:39:14;;;;;;;11.98;7.65;;;;;;;24.58;58.84;100658.91;5052132;28;20030;-83
2022/08/16 08:41:41;;;;;;;12.57;7.82;;;;;;;24.66;57.07;100657.09;5071893;28;20028;-84
2022/08/16 08:44:07;;;;;;;12.93;7.67;;;;;;;24.82;56.50;100661.75;5040004;28;20075;-83
2022/08/16 08:46:32;;;;;;;11.73;6.90;;;;;;;24.91;56.82;100660.41;5034840;28;20428;-84
2022/08/16 08:48:57;;;;;;;10.10;8.10;;;;;;;24.99;54.97;100652.34;5045105;28;20032;-83
2022/08/16 08:51:24;;;;;;;10.20;6.77;;;;;;;25.05;55.08;100659.91;5057648;28;20456;-83
2022/08/16 08:53:49;;;;;;;11.52;7.40;;;;;;;25.35;53.79;100661.25;5034064;28;20116;-83
2022/08/16 08:56:15;;;;;;;10.93;7.30;;;;;;;25.42;53.23;100666.88;5047756;28;20159;-83
2022/08/16 08:58:40;;;;;;;10.57;7.47;;;;;;;25.50;52.18;100673.28;5039951;28;20479;-83
2022/08/16 09:01:06;;;;;;;15.32;7.70;;;;;;;25.73;52.15;100673.31;5049551;28;20033;-83
2022/08/16 09:03:35;;;;;;;10.70;6.60;;;;;;;25.87;51.99;100674.72;5048614;28;20033;-83
2022/08/16 09:06:02;;;;;;;17.35;7.97;;;;;;;26.01;50.12;100680.44;5038792;28;20025;-83
2022/08/16 09:08:27;;;;;;;9.25;7.40;;;;;;;26.07;50.32;100689.97;5042147;28;20033;-84
2022/08/16 09:10:54;;;;;;;10.07;6.20;;;;;;;26.13;49.88;100687.72;5048471;28;20373;-85
2022/08/16 09:13:21;;;;;;;11.40;6.22;;;;;;;26.19;49.15;100679.97;5042606;28;20392;-85
2022/08/16 09:15:48;;;;;;;9.52;6.63;;;;;;;26.20;49.44;100685.09;5035632;28;20051;-84
2022/08/16 09:18:13;;;;;;;10.15;6.07;;;;;;;26.18;48.88;100692.09;5047556;28;20029;-84
2022/08/16 09:20:39;;;;;;;7.63;5.87;;;;;;;26.22;49.07;100696.47;5060292;28;20472;-84
2022/08/16 09:23:04;;;;;;;8.73;7.17;;;;;;;26.22;48.40;100690.22;5071519;28;20573;-84
2022/08/16 09:25:30;;;;;;;11.80;6.50;;;;;;;26.17;48.40;100694.06;5053089;28;20295;-84
2022/08/16 09:27:55;;;;;;;10.43;6.07;;;;;;;26.20;48.45;100685.09;5054062;28;20049;-84
2022/08/16 09:30:20;;;;;;;12.00;6.90;;;;;;;26.43;48.44;100693.28;5042361;28;20056;-85
2022/08/16 09:32:46;;;;;;;11.27;7.00;;;;;;;26.55;48.11;100681.28;5050372;28;20028;-83
2022/08/16 09:35:11;;;;;;;11.03;6.73;;;;;;;26.70;46.85;100692.47;5048274;28;20500;-83
2022/08/16 09:37:36;;;;;;;11.87;7.30;;;;;;;26.86;46.69;100695.03;5051596;28;20096;-84
2022/08/16 09:40:04;;;;;;;9.50;7.07;;;;;;;26.91;45.04;100686.47;5049346;28;20071;-84
2022/08/16 09:42:29;;;;;;;9.70;6.22;;;;;;;27.12;46.31;100696.16;5066220;28;20115;-84
2022/08/16 09:44:55;;;;;;;8.23;6.60;;;;;;;27.05;45.18;100669.38;5033444;28;20108;-84
2022/08/16 09:47:21;;;;;;;11.70;6.40;;;;;;;27.27;44.88;100686.13;5044886;28;20037;-84
2022/08/16 09:49:47;;;;;;;8.57;5.57;;;;;;;27.49;44.76;100676.94;5057020;28;20032;-84
2022/08/16 09:52:12;;;;;;;10.07;5.47;;;;;;;27.56;44.32;100681.75;5066226;28;20392;-83
2022/08/16 09:54:39;;;;;;;7.93;5.43;;;;;;;27.65;43.80;100684.94;5071088;28;20036;-84
2022/08/16 09:57:05;;;;;;;9.35;6.10;;;;;;;27.80;41.65;100683.13;5070806;28;20025;-84
2022/08/16 09:59:31;;;;;;;5.65;4.93;;;;;;;28.03;42.09;100684.88;5065113;28;20098;-84
2022/08/16 10:01:57;;;;;;;7.25;4.30;;;;;;;28.13;41.17;100688.91;5044525;28;20082;-83
2022/08/16 10:04:24;;;;;;;11.20;5.80;;;;;;;28.07;40.53;100687.66;5050056;28;20041;-84
2022/08/16 10:06:50;;;;;;;9.18;4.80;;;;;;;28.25;40.93;100694.13;5062382;28;20037;-85
2022/08/16 10:09:15;;;;;;;6.78;5.13;;;;;;;28.12;40.83;100692.81;5069899;28;20028;-84
2022/08/16 10:14:29;;;;;;;11.18;5.07;;;;;;;28.35;41.07;100687.09;5031090;28;20130;-83
2022/08/16 10:16:57;;;;;;;12.35;4.70;;;;;;;28.63;39.48;100676.63;5030979;28;20108;-85
2022/08/16 10:19:23;;;;;;;6.25;4.18;;;;;;;28.90;40.01;100682.69;5049872;28;20463;-83
2022/08/16 10:21:49;;;;;;;7.00;4.90;;;;;;;29.01;38.44;100679.97;5054910;28;20480;-84
2022/08/16 10:24:18;;;;;;;4.82;4.43;;;;;;;29.20;38.63;100678.06;5050771;28;20469;-84
2022/08/16 10:26:49;;;;;;;6.68;4.95;;;;;;;29.39;38.65;100686.03;5056363;28;20021;-82
2022/08/16 10:29:21;;;;;;;5.38;4.20;;;;;;;29.41;37.60;100686.41;5070475;28;20484;-82
2022/08/16 10:31:56;;;;;;;;;;;;;;;;;;;;;
2022/08/16 10:34:23;;;;;;;7.20;4.05;;;;;;;29.37;36.96;100679.31;5046908;28;20050;-83
2022/08/16 10:36:48;;;;;;;7.18;4.43;;;;;;;29.66;36.52;100696.69;5053535;28;20429;-82
2022/08/16 10:39:14;;;;;;;5.70;4.30;;;;;;;29.88;36.89;100694.72;5054814;28;20032;-82
2022/08/16 10:41:39;;;;;;;7.03;4.23;;;;;;;30.08;36.20;100694.34;5049709;28;20029;-83
2022/08/16 10:44:05;;;;;;;5.00;4.33;;;;;;;30.18;34.66;100687.25;5039088;28;20026;-82
2022/08/16 10:46:30;;;;;;;5.70;4.70;;;;;;;30.32;34.65;100684.47;5030104;28;20388;-83
2022/08/16 10:48:56;;;;;;;10.27;4.87;;;;;;;30.22;34.72;100688.81;5063157;28;20033;-84
2022/08/16 10:51:22;;;;;;;5.15;4.18;;;;;;;30.49;34.39;100688.38;5051994;28;20115;-84
2022/08/16 10:53:48;;;;;;;9.57;4.28;;;;;;;30.75;34.21;100694.66;5056160;28;20064;-84
2022/08/16 10:56:13;;;;;;;7.23;4.07;;;;;;;31.13;33.78;100702.38;5063615;28;20064;-83
2022/08/16 10:58:42;;;;;;;6.83;4.23;;;;;;;31.22;32.11;100705.53;5070377;28;20353;-83
2022/08/16 11:01:09;;;;;;;4.40;4.00;;;;;;;31.36;32.15;100703.88;5065465;28;20032;-84
2022/08/16 11:03:35;;;;;;;7.50;3.95;;;;;;;31.51;32.70;100705.34;5046896;28;20025;-83
2022/08/16 11:06:04;;;;;;;7.93;3.97;;;;;;;31.22;32.42;100705.53;5049418;28;20025;-84
2022/08/16 11:08:29;;;;;;;4.45;3.60;;;;;;;31.11;32.78;100702.78;5060059;28;20098;-84
2022/08/16 11:10:54;;;;;;;16.67;4.57;;;;;;;31.10;32.05;100701.22;5048691;28;20041;-84
2022/08/16 11:13:27;;;;;;;7.80;4.03;;;;;;;31.14;31.68;100708.72;5049925;28;20130;-84
2022/08/16 11:15:56;;;;;;;6.28;4.10;;;;;;;31.11;32.34;100711.09;5048484;28;20025;-84
2022/08/16 11:18:22;;;;;;;9.80;4.53;;;;;;;30.77;32.44;100702.53;5049480;28;20036;-82